createdAt,value
2017-12-12T00:00:43.391Z,15.30
2017-12-12T00:03:10.793Z,16.33
2017-12-12T00:05:38.178Z,16.70
2017-12-12T00:08:05.575Z,14.20
2017-12-12T00:10:32.962Z,14.67
2017-12-12T00:13:00.374Z,17.43
2017-12-12T00:15:27.867Z,14.70
2017-12-12T00:17:55.252Z,16.50
2017-12-12T00:20:22.651Z,16.63
2017-12-12T00:22:50.043Z,16.53
2017-12-12T00:25:17.466Z,14.70
2017-12-12T00:27:44.855Z,16.80
2017-12-12T00:30:12.262Z,18.07
2017-12-12T00:32:39.738Z,19.10
2017-12-12T00:35:07.140Z,20.13
2017-12-12T00:37:34.548Z,20.93
2017-12-12T00:40:01.934Z,20.90
2017-12-12T00:42:29.324Z,23.80
2017-12-12T00:44:56.722Z,22.20
2017-12-12T00:47:24.115Z,23.27
2017-12-12T00:49:51.511Z,23.20
2017-12-12T00:52:18.890Z,23.30
2017-12-12T00:54:46.290Z,23.00
2017-12-12T00:57:13.786Z,24.40
2017-12-12T00:59:41.185Z,24.63
2017-12-12T01:02:08.568Z,24.23
2017-12-12T01:04:35.967Z,24.83
2017-12-12T01:07:03.371Z,22.03
2017-12-12T01:09:30.798Z,23.70
2017-12-12T01:11:58.147Z,23.13
2017-12-12T01:14:25.567Z,23.83
2017-12-12T01:16:52.963Z,23.23
2017-12-12T01:19:20.360Z,22.90
2017-12-12T01:21:47.759Z,21.17
2017-12-12T01:24:15.153Z,22.00
2017-12-12T01:26:42.553Z,22.00
2017-12-12T01:29:09.935Z,21.47
2017-12-12T01:31:37.468Z,20.10
2017-12-12T01:34:04.850Z,19.60
2017-12-12T01:36:32.262Z,20.83
2017-12-12T01:38:59.638Z,21.27
2017-12-12T01:41:27.039Z,20.90
2017-12-12T01:43:54.431Z,24.30
2017-12-12T01:46:21.836Z,25.30
2017-12-12T01:48:49.231Z,25.20
2017-12-12T01:51:16.703Z,23.83
2017-12-12T01:53:44.090Z,26.63
2017-12-12T01:56:11.483Z,26.80
2017-12-12T01:58:38.963Z,27.87
2017-12-12T02:01:06.353Z,27.57
2017-12-12T02:03:33.747Z,26.43
2017-12-12T02:06:01.135Z,30.90
2017-12-12T02:08:28.530Z,29.63
2017-12-12T02:10:55.919Z,27.70
2017-12-12T02:13:23.314Z,28.87
2017-12-12T02:15:50.734Z,27.37
2017-12-12T02:18:18.135Z,27.23
2017-12-12T02:20:45.536Z,30.23
2017-12-12T02:23:12.938Z,29.93
2017-12-12T02:25:40.331Z,26.87
2017-12-12T02:28:07.745Z,28.87
2017-12-12T02:30:35.137Z,28.08
2017-12-12T02:33:02.540Z,28.37
2017-12-12T02:35:29.992Z,26.73
2017-12-12T02:37:57.390Z,30.00
2017-12-12T02:40:24.782Z,29.63
2017-12-12T02:42:52.199Z,28.60
2017-12-12T02:45:19.589Z,31.23
2017-12-12T02:47:46.997Z,32.77
2017-12-12T02:50:14.425Z,32.90
2017-12-12T02:52:41.819Z,32.50
2017-12-12T02:55:09.255Z,28.27
2017-12-12T02:57:36.610Z,27.80
2017-12-12T03:00:04.010Z,28.87
2017-12-12T03:02:31.394Z,29.27
2017-12-12T03:04:58.790Z,28.60
2017-12-12T03:07:26.265Z,29.70
2017-12-12T03:09:53.647Z,26.60
2017-12-12T03:12:21.034Z,26.33
2017-12-12T03:14:48.428Z,24.70
2017-12-12T03:17:15.819Z,25.07
2017-12-12T03:19:43.211Z,25.30
2017-12-12T03:22:10.603Z,24.63
2017-12-12T03:24:38.004Z,24.97
2017-12-12T03:27:05.391Z,25.80
2017-12-12T03:29:32.791Z,26.03
2017-12-12T03:32:00.183Z,19.73
2017-12-12T03:34:27.583Z,20.27
2017-12-12T03:36:54.977Z,20.07
2017-12-12T03:39:22.365Z,19.70
2017-12-12T03:41:49.771Z,19.93
2017-12-12T03:44:17.176Z,19.00
2017-12-12T03:46:44.562Z,19.47
2017-12-12T03:49:11.955Z,19.90
2017-12-12T03:51:39.358Z,20.20
2017-12-12T03:54:06.838Z,15.90
2017-12-12T03:56:34.235Z,17.40
2017-12-12T03:59:01.633Z,17.27
2017-12-12T04:01:29.022Z,14.93
2017-12-12T04:03:56.415Z,14.80
2017-12-12T04:06:23.923Z,15.33
2017-12-12T04:08:51.319Z,15.77
2017-12-12T04:11:18.706Z,14.90
2017-12-12T04:13:46.107Z,12.87
2017-12-12T04:16:13.497Z,13.77
2017-12-12T04:18:40.899Z,12.63
2017-12-12T04:21:08.283Z,12.60
2017-12-12T04:23:35.683Z,11.83
2017-12-12T04:26:03.162Z,12.03
2017-12-12T04:28:30.545Z,12.53
2017-12-12T04:30:57.947Z,11.97
2017-12-12T04:33:25.338Z,12.70
2017-12-12T04:35:52.727Z,12.30
2017-12-12T04:38:20.114Z,10.60
2017-12-12T04:40:47.502Z,11.77
2017-12-12T04:43:14.911Z,12.50
2017-12-12T04:45:42.308Z,13.97
2017-12-12T04:48:09.707Z,11.43
2017-12-12T04:50:37.115Z,12.83
2017-12-12T04:53:04.510Z,13.13
2017-12-12T04:55:31.931Z,12.00
2017-12-12T04:57:59.316Z,12.17
2017-12-12T05:00:26.711Z,12.87
2017-12-12T05:02:54.102Z,11.90
2017-12-12T05:05:21.486Z,13.20
2017-12-12T05:07:48.887Z,14.10
2017-12-12T05:10:16.270Z,13.70
2017-12-12T05:12:43.679Z,12.60
2017-12-12T05:15:11.080Z,14.80
2017-12-12T05:17:38.469Z,13.50
2017-12-12T05:20:05.867Z,13.50
2017-12-12T05:22:33.255Z,14.90
2017-12-12T05:25:00.651Z,13.27
2017-12-12T05:27:28.445Z,12.50
2017-12-12T05:29:55.897Z,12.73
2017-12-12T05:32:23.224Z,14.73
2017-12-12T05:34:50.622Z,12.33
2017-12-12T05:37:18.070Z,14.40
2017-12-12T05:39:45.471Z,12.23
2017-12-12T05:42:12.899Z,13.40
2017-12-12T05:44:40.387Z,13.33
2017-12-12T05:47:07.864Z,13.47
2017-12-12T05:49:35.310Z,13.73
2017-12-12T05:52:02.706Z,15.37
2017-12-12T05:54:30.119Z,15.63
2017-12-12T05:56:57.524Z,16.50
2017-12-12T05:59:24.933Z,17.00
2017-12-12T06:01:52.327Z,18.20
2017-12-12T06:04:19.723Z,18.20
2017-12-12T06:06:47.118Z,17.90
2017-12-12T06:09:14.534Z,17.57
2017-12-12T06:11:41.970Z,19.07
2017-12-12T06:14:09.331Z,20.10
2017-12-12T06:16:36.728Z,21.90
2017-12-12T06:19:04.130Z,20.20
2017-12-12T06:21:31.532Z,20.57
2017-12-12T06:23:58.920Z,23.07
2017-12-12T06:26:26.319Z,22.30
2017-12-12T06:28:53.723Z,23.13
2017-12-12T06:31:21.120Z,23.10
2017-12-12T06:33:48.516Z,23.10
2017-12-12T06:36:15.911Z,20.43
2017-12-12T06:38:43.305Z,21.37
2017-12-12T06:41:10.694Z,18.63
2017-12-12T06:43:38.087Z,18.70
2017-12-12T06:46:05.490Z,17.83
2017-12-12T06:48:32.874Z,15.03
2017-12-12T06:51:00.280Z,14.07
2017-12-12T06:53:27.666Z,12.87
2017-12-12T06:55:55.063Z,14.43
2017-12-12T06:58:22.469Z,13.60
2017-12-12T07:00:49.873Z,15.60
2017-12-12T07:03:17.268Z,14.43
2017-12-12T07:05:44.670Z,12.60
2017-12-12T07:08:12.088Z,13.77
2017-12-12T07:10:39.475Z,14.80
2017-12-12T07:13:06.872Z,13.83
2017-12-12T07:15:34.249Z,13.90
2017-12-12T07:18:01.659Z,14.80
2017-12-12T07:20:29.055Z,16.27
2017-12-12T07:22:56.447Z,14.87
2017-12-12T07:25:23.838Z,15.30
2017-12-12T07:27:51.259Z,15.50
2017-12-12T07:30:18.656Z,16.40
2017-12-12T07:32:46.054Z,13.87
2017-12-12T07:35:13.438Z,16.10
2017-12-12T07:37:40.837Z,15.57
2017-12-12T07:40:08.225Z,18.30
2017-12-12T07:42:35.627Z,19.17
2017-12-12T07:45:03.024Z,17.30
2017-12-12T07:47:30.511Z,17.87
2017-12-12T07:49:57.831Z,18.83
2017-12-12T07:52:25.236Z,20.03
2017-12-12T07:54:52.647Z,19.70
2017-12-12T07:57:20.039Z,18.37
2017-12-12T07:59:47.438Z,17.27
2017-12-12T08:02:14.825Z,19.53
2017-12-12T08:04:42.486Z,20.50
2017-12-12T08:07:09.871Z,19.23
2017-12-12T08:09:37.271Z,19.97
2017-12-12T08:12:04.663Z,20.07
2017-12-12T08:14:32.067Z,19.47
2017-12-12T08:16:59.460Z,18.03
2017-12-12T08:19:26.882Z,16.07
2017-12-12T08:21:54.271Z,18.50
2017-12-12T08:24:21.674Z,17.60
2017-12-12T08:26:49.069Z,16.53
2017-12-12T08:29:16.466Z,18.20
2017-12-12T08:31:43.863Z,17.73
2017-12-12T08:34:11.259Z,18.40
2017-12-12T08:36:38.647Z,17.50
2017-12-12T08:39:06.056Z,18.30
2017-12-12T08:41:33.447Z,15.93
2017-12-12T08:44:00.852Z,14.20
2017-12-12T08:46:28.238Z,18.90
2017-12-12T08:48:55.633Z,17.60
2017-12-12T08:51:23.138Z,16.13
2017-12-12T08:53:50.507Z,15.20
2017-12-12T08:56:17.911Z,15.33
2017-12-12T08:58:45.303Z,15.03
2017-12-12T09:01:12.703Z,13.63
2017-12-12T09:03:40.086Z,16.27
2017-12-12T09:06:07.487Z,15.13
2017-12-12T09:08:34.878Z,14.43
2017-12-12T09:11:02.271Z,14.17
2017-12-12T09:13:29.668Z,15.50
2017-12-12T09:15:57.063Z,15.37
2017-12-12T09:18:25.219Z,14.83
2017-12-12T09:20:52.625Z,14.00
2017-12-12T09:23:20.009Z,14.70
2017-12-12T09:25:47.429Z,14.37
2017-12-12T09:28:14.812Z,12.60
2017-12-12T09:30:42.211Z,12.47
2017-12-12T09:33:09.601Z,12.63
2017-12-12T09:35:37.002Z,12.90
2017-12-12T09:38:04.395Z,12.60
2017-12-12T09:40:31.794Z,12.07
2017-12-12T09:42:59.186Z,13.30
2017-12-12T09:45:26.595Z,12.93
2017-12-12T09:47:53.995Z,12.00
2017-12-12T09:50:21.394Z,12.20
2017-12-12T09:52:48.786Z,11.83
2017-12-12T09:55:16.971Z,11.93
2017-12-12T09:57:44.371Z,10.73
2017-12-12T10:00:11.758Z,10.70
2017-12-12T10:02:39.162Z,10.17
2017-12-12T10:05:06.552Z,11.10
2017-12-12T10:07:33.971Z,10.03
2017-12-12T10:10:01.366Z,11.43
2017-12-12T10:12:28.763Z,11.07
2017-12-12T10:14:56.155Z,9.63
2017-12-12T10:17:23.551Z,9.87
2017-12-12T10:19:50.939Z,9.37
2017-12-12T10:22:18.331Z,9.77
2017-12-12T10:24:45.739Z,8.47
2017-12-12T10:27:13.136Z,9.20
2017-12-12T10:29:40.527Z,8.70
2017-12-12T10:32:07.936Z,9.17
2017-12-12T10:34:35.320Z,9.07
2017-12-12T10:37:02.747Z,8.57
2017-12-12T10:39:30.163Z,9.23
2017-12-12T10:41:57.546Z,9.13
2017-12-12T10:44:24.964Z,9.17
2017-12-12T10:46:52.355Z,8.93
2017-12-12T10:49:19.783Z,8.10
2017-12-12T10:51:47.180Z,8.90
2017-12-12T10:54:14.574Z,8.53
2017-12-12T10:56:41.964Z,8.20
2017-12-12T10:59:09.359Z,8.70
2017-12-12T11:01:36.745Z,8.37
2017-12-12T11:04:04.211Z,7.93
2017-12-12T11:06:31.590Z,7.27
2017-12-12T11:08:58.983Z,7.97
2017-12-12T11:11:26.365Z,6.70
2017-12-12T11:13:53.755Z,7.50
2017-12-12T11:16:21.196Z,6.90
2017-12-12T11:18:48.578Z,6.20
2017-12-12T11:21:16.000Z,6.37
2017-12-12T11:23:43.382Z,6.30
2017-12-12T11:26:10.774Z,6.57
2017-12-12T11:28:38.178Z,6.07
2017-12-12T11:31:05.563Z,5.83
2017-12-12T11:33:32.953Z,6.17
2017-12-12T11:36:00.343Z,6.10
2017-12-12T11:38:27.808Z,5.40
2017-12-12T11:40:55.127Z,6.10
2017-12-12T11:43:22.511Z,5.90
2017-12-12T11:45:49.899Z,5.60
2017-12-12T11:48:17.285Z,5.80
2017-12-12T11:50:44.671Z,4.97
2017-12-12T11:53:12.060Z,5.13
2017-12-12T11:55:39.448Z,4.80
2017-12-12T11:58:06.830Z,5.30
2017-12-12T12:00:34.214Z,4.80
2017-12-12T12:03:01.604Z,5.00
2017-12-12T12:05:28.989Z,5.47
2017-12-12T12:07:56.370Z,6.63
2017-12-12T12:10:23.792Z,5.30
2017-12-12T12:12:51.175Z,4.60
2017-12-12T12:15:18.571Z,4.83
2017-12-12T12:17:45.975Z,4.83
2017-12-12T12:20:13.362Z,5.17
2017-12-12T12:22:40.760Z,5.30
2017-12-12T12:25:08.147Z,5.70
2017-12-12T12:27:35.590Z,5.20
2017-12-12T12:30:04.584Z,5.43
2017-12-12T12:32:31.958Z,5.30
2017-12-12T12:34:59.584Z,5.73
2017-12-12T12:37:27.912Z,6.73
2017-12-12T12:39:55.290Z,5.50
2017-12-12T12:42:22.674Z,6.77
2017-12-12T12:44:50.053Z,6.47
2017-12-12T12:47:17.461Z,6.93
2017-12-12T12:49:44.834Z,7.00
2017-12-12T12:52:12.235Z,8.77
2017-12-12T12:54:39.607Z,7.13
2017-12-12T12:57:07.015Z,8.20
2017-12-12T12:59:34.384Z,8.37
2017-12-12T13:02:01.825Z,8.53
2017-12-12T13:04:29.251Z,8.43
2017-12-12T13:06:56.634Z,8.90
2017-12-12T13:09:24.027Z,9.00
2017-12-12T13:11:51.418Z,9.50
2017-12-12T13:14:18.839Z,7.37
2017-12-12T13:16:46.207Z,7.83
2017-12-12T13:19:13.599Z,9.10
2017-12-12T13:21:40.994Z,9.37
2017-12-12T13:24:08.375Z,8.87
2017-12-12T13:26:35.779Z,8.53
2017-12-12T13:29:03.167Z,8.43
2017-12-12T13:31:30.558Z,8.50
2017-12-12T13:33:57.953Z,9.00
2017-12-12T13:36:25.341Z,9.60
2017-12-12T13:38:52.837Z,9.80
2017-12-12T13:41:20.222Z,10.77
2017-12-12T13:43:47.611Z,9.53
2017-12-12T13:46:15.000Z,10.33
2017-12-12T13:48:42.395Z,10.13
2017-12-12T13:51:09.775Z,9.37
2017-12-12T13:53:37.393Z,10.20
2017-12-12T13:56:04.895Z,8.60
2017-12-12T13:58:32.382Z,9.40
2017-12-12T14:00:59.771Z,10.27
2017-12-12T14:03:27.281Z,9.43
2017-12-12T14:05:54.679Z,10.87
2017-12-12T14:08:22.091Z,10.07
2017-12-12T14:10:49.461Z,10.90
2017-12-12T14:13:22.599Z,10.73
2017-12-12T14:15:49.983Z,10.70
2017-12-12T14:18:17.386Z,11.27
2017-12-12T14:20:44.827Z,12.53
2017-12-12T14:23:12.247Z,11.87
2017-12-12T14:25:39.636Z,10.47
2017-12-12T14:28:07.036Z,12.27
2017-12-12T14:30:34.418Z,12.23
2017-12-12T14:33:01.832Z,11.90
2017-12-12T14:35:29.240Z,11.20
2017-12-12T14:37:56.635Z,13.27
2017-12-12T14:40:24.027Z,12.90
2017-12-12T14:42:51.444Z,13.80
2017-12-12T14:45:18.836Z,14.07
2017-12-12T14:47:46.226Z,13.13
2017-12-12T14:50:13.634Z,14.67
2017-12-12T14:52:41.011Z,15.47
2017-12-12T14:55:08.414Z,15.20
2017-12-12T14:57:35.803Z,15.97
2017-12-12T15:00:04.155Z,14.68
2017-12-12T15:02:31.547Z,16.00
2017-12-12T15:04:58.943Z,14.20
2017-12-12T15:07:26.382Z,14.13
2017-12-12T15:09:53.780Z,13.27
2017-12-12T15:12:21.183Z,11.03
2017-12-12T15:14:48.623Z,11.10
2017-12-12T15:17:16.015Z,11.87
2017-12-12T15:19:43.418Z,9.90
2017-12-12T15:22:10.794Z,10.43
2017-12-12T15:24:38.195Z,11.70
2017-12-12T15:27:05.624Z,10.53
2017-12-12T15:29:33.027Z,11.37
2017-12-12T15:32:00.432Z,11.20
2017-12-12T15:34:27.831Z,10.50
2017-12-12T15:36:55.227Z,9.77
2017-12-12T15:39:22.616Z,8.93
2017-12-12T15:41:50.012Z,10.33
2017-12-12T15:44:17.437Z,8.53
2017-12-12T15:46:44.807Z,10.27
2017-12-12T15:49:12.215Z,9.20
2017-12-12T15:51:39.620Z,9.93
2017-12-12T15:54:07.022Z,8.73
2017-12-12T15:56:34.422Z,11.00
2017-12-12T15:59:01.854Z,11.13
2017-12-12T16:01:29.251Z,9.90
2017-12-12T16:03:56.630Z,8.70
2017-12-12T16:06:24.031Z,9.67
2017-12-12T16:08:51.426Z,9.10
2017-12-12T16:11:18.822Z,8.00
2017-12-12T16:13:46.221Z,8.73
2017-12-12T16:16:13.610Z,9.40
2017-12-12T16:18:41.026Z,8.37
2017-12-12T16:21:08.426Z,8.97
2017-12-12T16:23:35.887Z,10.67
2017-12-12T16:26:03.267Z,8.10
2017-12-12T16:28:30.662Z,10.33
2017-12-12T16:30:58.056Z,9.57
2017-12-12T16:33:25.450Z,8.97
2017-12-12T16:35:52.863Z,12.13
2017-12-12T16:38:20.262Z,13.27
2017-12-12T16:40:47.648Z,13.00
2017-12-12T16:43:15.046Z,14.70
2017-12-12T16:45:42.439Z,12.60
2017-12-12T16:48:09.852Z,12.23
2017-12-12T16:50:37.268Z,12.70
2017-12-12T16:53:04.675Z,12.40
2017-12-12T16:55:32.067Z,14.00
2017-12-12T16:57:59.500Z,12.90
2017-12-12T17:00:26.922Z,10.93
2017-12-12T17:02:54.332Z,11.97
2017-12-12T17:05:21.719Z,12.00
2017-12-12T17:07:49.132Z,13.40
2017-12-12T17:10:16.522Z,15.30
2017-12-12T17:12:43.926Z,12.07
2017-12-12T17:15:11.332Z,12.83
2017-12-12T17:17:38.724Z,13.30
2017-12-12T17:20:06.127Z,12.90
2017-12-12T17:22:33.529Z,12.97
2017-12-12T17:25:00.951Z,12.93
2017-12-12T17:27:28.351Z,15.30
2017-12-12T17:29:55.750Z,13.63
2017-12-12T17:32:23.148Z,13.83
2017-12-12T17:34:50.548Z,15.00
2017-12-12T17:37:17.946Z,15.63
2017-12-12T17:39:45.345Z,14.50
2017-12-12T17:42:12.735Z,14.40
2017-12-12T17:44:40.135Z,16.17
2017-12-12T17:47:07.534Z,15.47
2017-12-12T17:49:34.926Z,15.93
2017-12-12T17:52:02.315Z,16.77
2017-12-12T17:54:29.702Z,17.43
2017-12-12T17:56:57.115Z,17.30
2017-12-12T17:59:24.508Z,17.13
2017-12-12T18:01:51.903Z,18.80
2017-12-12T18:04:19.290Z,20.00
2017-12-12T18:06:46.686Z,20.60
2017-12-12T18:09:14.091Z,22.77
2017-12-12T18:11:41.491Z,21.27
2017-12-12T18:14:08.886Z,22.57
2017-12-12T18:16:36.272Z,26.60
2017-12-12T18:19:03.662Z,21.97
2017-12-12T18:21:31.063Z,23.80
2017-12-12T18:23:58.468Z,22.07
2017-12-12T18:26:25.860Z,21.97
2017-12-12T18:28:53.259Z,21.70
2017-12-12T18:31:20.654Z,22.20
2017-12-12T18:33:48.046Z,20.00
2017-12-12T18:36:15.452Z,21.27
2017-12-12T18:38:42.931Z,19.80
2017-12-12T18:41:10.338Z,21.23
2017-12-12T18:43:37.731Z,21.23
2017-12-12T18:46:05.123Z,22.00
2017-12-12T18:48:32.528Z,20.20
2017-12-12T18:50:59.927Z,21.67
2017-12-12T18:53:27.407Z,22.97
2017-12-12T18:55:54.807Z,23.97
2017-12-12T18:58:22.211Z,23.80
2017-12-12T19:00:49.610Z,25.10
2017-12-12T19:03:17.085Z,23.97
2017-12-12T19:05:44.464Z,23.67
2017-12-12T19:08:11.867Z,24.73
2017-12-12T19:13:11.235Z,24.80
2017-12-12T19:15:38.635Z,24.70
2017-12-12T19:18:06.031Z,24.93
2017-12-12T19:20:33.424Z,26.60
2017-12-12T19:23:00.830Z,24.60
2017-12-12T19:25:28.223Z,27.40
2017-12-12T19:27:55.640Z,25.67
2017-12-12T19:30:23.035Z,25.30
2017-12-12T19:32:50.459Z,25.93
2017-12-12T19:35:17.855Z,26.53
2017-12-12T19:37:45.238Z,24.07
2017-12-12T19:40:12.643Z,25.03
2017-12-12T19:42:40.042Z,24.20
2017-12-12T19:45:07.451Z,23.63
2017-12-12T19:47:34.852Z,25.33
2017-12-12T19:50:02.255Z,24.17
2017-12-12T19:52:29.651Z,25.53
2017-12-12T19:54:57.067Z,23.13
2017-12-12T19:57:24.459Z,22.37
2017-12-12T19:59:51.866Z,25.53
2017-12-12T20:02:19.262Z,24.00
2017-12-12T20:04:46.670Z,23.63
2017-12-12T20:07:14.076Z,24.00
2017-12-12T20:09:41.492Z,23.27
2017-12-12T20:12:08.898Z,23.07
2017-12-12T20:14:36.295Z,24.60
2017-12-12T20:17:03.694Z,21.13
2017-12-12T20:19:31.098Z,23.00
2017-12-12T20:21:58.487Z,22.93
2017-12-12T20:24:25.911Z,21.20
2017-12-12T20:26:53.305Z,24.93
2017-12-12T20:29:20.697Z,23.70
2017-12-12T20:31:48.121Z,22.80
2017-12-12T20:34:15.507Z,21.93
2017-12-12T20:36:42.921Z,22.13
2017-12-12T20:39:10.316Z,23.10
2017-12-12T20:41:37.715Z,24.47
2017-12-12T20:44:05.117Z,24.50
2017-12-12T20:46:32.518Z,23.03
2017-12-12T20:48:59.920Z,21.87
2017-12-12T20:51:27.318Z,22.93
2017-12-12T20:53:54.719Z,26.07
2017-12-12T20:56:22.150Z,23.33
2017-12-12T20:58:49.551Z,22.60
2017-12-12T21:01:16.953Z,22.50
2017-12-12T21:03:44.343Z,21.60
2017-12-12T21:06:11.746Z,22.50
2017-12-12T21:08:39.226Z,22.97
2017-12-12T21:11:06.730Z,24.33
2017-12-12T21:13:34.122Z,23.07
2017-12-12T21:16:01.522Z,25.60
2017-12-12T21:18:28.915Z,23.97
2017-12-12T21:20:56.334Z,24.20
2017-12-12T21:23:23.726Z,23.73
2017-12-12T21:25:51.147Z,26.17
2017-12-12T21:28:18.546Z,24.80
2017-12-12T21:30:45.953Z,21.70
2017-12-12T21:33:13.364Z,25.57
2017-12-12T21:35:40.763Z,26.20
2017-12-12T21:38:08.176Z,26.97
2017-12-12T21:40:35.568Z,28.40
2017-12-12T21:43:02.984Z,26.77
2017-12-12T21:45:30.383Z,27.43
2017-12-12T21:47:57.783Z,29.70
2017-12-12T21:50:25.177Z,26.33
2017-12-12T21:52:52.574Z,26.87
2017-12-12T21:55:20.079Z,21.23
2017-12-12T21:57:47.486Z,25.87
2017-12-12T22:00:14.992Z,27.87
2017-12-12T22:02:42.407Z,24.70
2017-12-12T22:05:09.787Z,24.83
2017-12-12T22:07:37.190Z,25.10
2017-12-12T22:10:04.579Z,25.73
2017-12-12T22:12:31.983Z,23.67
2017-12-12T22:14:59.372Z,24.70
2017-12-12T22:17:26.775Z,23.47
2017-12-12T22:19:54.166Z,26.87
2017-12-12T22:22:21.592Z,25.07
2017-12-12T22:24:48.982Z,25.30
2017-12-12T22:27:16.379Z,23.10
2017-12-12T22:29:43.802Z,24.00
2017-12-12T22:32:11.192Z,23.40
2017-12-12T22:34:38.623Z,23.30
2017-12-12T22:37:06.015Z,23.43
2017-12-12T22:39:33.423Z,23.13
2017-12-12T22:42:00.827Z,22.67
2017-12-12T22:44:28.226Z,23.60
2017-12-12T22:46:55.622Z,23.43
2017-12-12T22:49:23.031Z,22.13
2017-12-12T22:51:51.327Z,21.37
2017-12-12T22:54:18.719Z,23.17
2017-12-12T22:56:46.120Z,20.10
2017-12-12T22:59:13.675Z,22.67
2017-12-12T23:01:41.076Z,21.30
2017-12-12T23:04:08.475Z,21.20
2017-12-12T23:06:35.883Z,20.97
2017-12-12T23:09:03.286Z,19.10
2017-12-12T23:11:30.685Z,19.47
2017-12-12T23:13:58.090Z,18.77
2017-12-12T23:16:25.483Z,16.87
2017-12-12T23:18:52.891Z,16.63
2017-12-12T23:21:20.279Z,19.13
2017-12-12T23:23:47.684Z,17.87
2017-12-12T23:26:15.118Z,17.73
2017-12-12T23:28:42.523Z,19.00
2017-12-12T23:31:09.922Z,19.80
2017-12-12T23:33:37.311Z,16.47
2017-12-12T23:36:04.771Z,16.17
2017-12-12T23:38:32.250Z,18.27
2017-12-12T23:40:59.655Z,18.77
2017-12-12T23:43:27.066Z,20.20
2017-12-12T23:45:54.463Z,19.03
2017-12-12T23:48:21.882Z,18.90
2017-12-12T23:50:49.284Z,17.93
2017-12-12T23:53:16.731Z,18.63
2017-12-12T23:55:44.130Z,19.20
2017-12-12T23:58:11.531Z,18.23
